Time;durP1;ratioP1;P1;durP2;ratioP2;P2;SDS_P1;SDS_P2;PMS_P1;PMS_P2;Temp;Humidity;BMP_temperature;BMP_pressure;BME280_temperature;BME280_humidity;BME280_pressure;Samples;Min_cycle;Max_cycle;Signal;HPM_P1;HPM_P2
2022/11/02 00:00:40;;;;;;;17.85;14.38;;;;;;;;;;6312557;28;20078;-66
2022/11/02 00:03:43;;;;;;;19.50;13.95;;;;;;;;;;6312755;28;20060;-65
2022/11/02 00:06:44;;;;;;;19.35;14.40;;;;;;;;;;6314015;28;20116;-67
2022/11/02 00:09:46;;;;;;;19.35;14.98;;;;;;;;;;6310579;28;20059;-67
2022/11/02 00:12:49;;;;;;;18.88;14.48;;;;;;;;;;6308067;28;20051;-67
2022/11/02 00:15:50;;;;;;;19.17;13.13;;;;;;;;;;6315247;28;20408;-66
2022/11/02 00:18:55;;;;;;;17.23;11.82;;;;;;;;;;6306511;28;20055;-65
2022/11/02 00:21:58;;;;;;;19.83;11.85;;;;;;;;;;6303519;28;20668;-65
2022/11/02 00:25:02;;;;;;;18.25;11.57;;;;;;;;;;6305082;28;20047;-65
2022/11/02 00:28:04;;;;;;;21.45;12.18;;;;;;;;;;6302280;28;20214;-65
2022/11/02 00:31:06;;;;;;;19.02;12.35;;;;;;;;;;6304268;28;20102;-65
2022/11/02 00:34:09;;;;;;;18.35;13.10;;;;;;;;;;6304121;28;20048;-66
2022/11/02 00:37:11;;;;;;;18.43;12.33;;;;;;;;;;6305011;28;20048;-64
2022/11/02 00:40:13;;;;;;;17.88;12.38;;;;;;;;;;6304846;28;20048;-65
2022/11/02 00:43:14;;;;;;;18.98;12.80;;;;;;;;;;6307166;28;20368;-65
2022/11/02 00:46:16;;;;;;;16.08;11.65;;;;;;;;;;6305775;28;20056;-65
2022/11/02 00:49:19;;;;;;;16.90;12.02;;;;;;;;;;6305557;28;20060;-65
2022/11/02 00:52:21;;;;;;;16.77;12.30;;;;;;;;;;6303039;28;20044;-66
2022/11/02 00:55:23;;;;;;;15.10;11.68;;;;;;;;;;6309382;28;20086;-64
2022/11/02 00:58:24;;;;;;;17.77;12.88;;;;;;;;;;6306950;28;20079;-65
2022/11/02 01:01:26;;;;;;;18.67;13.70;;;;;;;;;;6303992;28;20086;-65
2022/11/02 01:04:29;;;;;;;18.45;14.27;;;;;;;;;;6307047;28;20086;-66
2022/11/02 01:07:31;;;;;;;24.63;15.48;;;;;;;;;;6303419;28;20059;-65
2022/11/02 01:10:33;;;;;;;22.92;15.82;;;;;;;;;;6302586;28;20071;-65
2022/11/02 01:13:34;;;;;;;25.55;17.42;;;;;;;;;;6312148;28;20060;-65
2022/11/02 01:16:38;;;;;;;31.40;20.27;;;;;;;;;;6308207;28;20052;-65
2022/11/02 01:19:41;;;;;;;29.40;18.27;;;;;;;;;;6306988;28;20052;-65
2022/11/02 01:22:43;;;;;;;32.37;20.53;;;;;;;;;;6304761;28;20322;-64
2022/11/02 01:25:45;;;;;;;31.85;19.55;;;;;;;;;;6309478;28;20722;-65
2022/11/02 01:28:47;;;;;;;35.60;20.70;;;;;;;;;;6303633;28;20095;-64
2022/11/02 01:31:49;;;;;;;32.60;19.73;;;;;;;;;;6304852;28;20048;-65
2022/11/02 01:34:52;;;;;;;36.92;20.30;;;;;;;;;;6304710;28;20052;-65
2022/11/02 01:37:54;;;;;;;32.90;18.50;;;;;;;;;;6301920;28;20067;-64
2022/11/02 01:40:55;;;;;;;35.20;19.05;;;;;;;;;;6310938;28;20169;-65
2022/11/02 01:43:59;;;;;;;33.45;18.30;;;;;;;;;;6308406;28;20097;-65
2022/11/02 01:47:03;;;;;;;32.33;17.98;;;;;;;;;;6309130;28;20059;-66
2022/11/02 01:50:09;;;;;;;32.13;17.35;;;;;;;;;;6306702;28;20087;-66
2022/11/02 01:53:11;;;;;;;29.73;17.45;;;;;;;;;;6305231;28;20056;-66
2022/11/02 01:56:15;;;;;;;30.63;17.25;;;;;;;;;;6307632;28;20267;-66
2022/11/02 01:59:20;;;;;;;27.05;16.50;;;;;;;;;;6306649;28;20040;-65
2022/11/02 02:02:23;;;;;;;31.83;16.98;;;;;;;;;;6306972;28;20056;-65
2022/11/02 02:05:26;;;;;;;25.40;15.50;;;;;;;;;;6312351;28;20240;-65
2022/11/02 02:08:28;;;;;;;24.17;15.85;;;;;;;;;;6310422;28;20089;-65
2022/11/02 02:11:31;;;;;;;25.17;15.35;;;;;;;;;;6307322;28;20044;-66
2022/11/02 02:14:33;;;;;;;24.88;15.10;;;;;;;;;;6303329;28;20287;-66
2022/11/02 02:17:42;;;;;;;25.77;14.55;;;;;;;;;;6309455;28;20048;-65
2022/11/02 02:21:04;;;;;;;28.63;15.75;;;;;;;;;;6302285;28;20086;-66
2022/11/02 02:24:18;;;;;;;25.33;14.27;;;;;;;;;;6303966;28;20089;-66
2022/11/02 02:27:23;;;;;;;25.90;15.07;;;;;;;;;;6305274;28;20048;-66
2022/11/02 02:30:28;;;;;;;27.27;14.63;;;;;;;;;;6302534;28;20052;-65
2022/11/02 02:33:33;;;;;;;25.17;14.48;;;;;;;;;;6302514;28;20106;-65
2022/11/02 02:36:38;;;;;;;27.40;14.95;;;;;;;;;;6306018;28;20060;-65
2022/11/02 02:39:43;;;;;;;26.38;14.20;;;;;;;;;;6312293;28;20347;-65
2022/11/02 02:42:48;;;;;;;26.67;15.07;;;;;;;;;;6310551;28;20236;-66
2022/11/02 02:45:54;;;;;;;23.42;14.45;;;;;;;;;;6311675;28;20056;-65
2022/11/02 02:48:57;;;;;;;23.48;13.88;;;;;;;;;;6309188;28;20057;-65
2022/11/02 02:52:00;;;;;;;24.27;13.73;;;;;;;;;;6305907;28;20051;-65
2022/11/02 02:55:03;;;;;;;22.55;13.30;;;;;;;;;;6310623;28;20079;-65
2022/11/02 02:58:07;;;;;;;20.33;13.18;;;;;;;;;;6308380;28;20086;-66
2022/11/02 03:01:10;;;;;;;;;;;;;;;;;;6308069;28;20052;-65
2022/11/02 03:04:12;;;;;;;18.52;11.77;;;;;;;;;;6305495;28;19916;-65
2022/11/02 03:07:17;;;;;;;20.58;13.90;;;;;;;;;;6309405;28;20125;-64
2022/11/02 03:10:21;;;;;;;17.20;12.27;;;;;;;;;;6310646;28;20085;-65
2022/11/02 03:13:35;;;;;;;18.00;12.40;;;;;;;;;;6306341;28;20056;-66
2022/11/02 03:16:47;;;;;;;;;;;;;;;;;;6305915;28;20302;-65
2022/11/02 03:19:52;;;;;;;18.75;12.55;;;;;;;;;;6309011;28;19946;-66
2022/11/02 03:23:02;;;;;;;17.25;12.88;;;;;;;;;;6306823;28;20069;-65
2022/11/02 03:26:08;;;;;;;16.27;12.32;;;;;;;;;;6311394;28;20469;-65
2022/11/02 03:29:12;;;;;;;17.80;11.98;;;;;;;;;;6309535;28;20379;-65
2022/11/02 03:32:21;;;;;;;18.70;12.85;;;;;;;;;;6303421;28;20060;-64
2022/11/02 03:35:25;;;;;;;16.88;12.25;;;;;;;;;;6306611;28;20048;-65
2022/11/02 03:38:34;;;;;;;16.65;12.02;;;;;;;;;;6309013;28;20324;-65
2022/11/02 03:41:36;;;;;;;17.48;12.25;;;;;;;;;;6311895;28;20087;-65
2022/11/02 03:44:39;;;;;;;16.65;11.90;;;;;;;;;;6308496;28;20081;-65
2022/11/02 03:47:44;;;;;;;16.83;12.73;;;;;;;;;;6309901;28;20481;-65
2022/11/02 03:50:49;;;;;;;19.95;12.27;;;;;;;;;;6304853;28;20498;-66
2022/11/02 03:53:53;;;;;;;18.02;12.52;;;;;;;;;;6313313;28;20049;-65
2022/11/02 03:56:57;;;;;;;19.33;12.75;;;;;;;;;;6310206;28;20263;-65
2022/11/02 04:00:07;;;;;;;18.50;12.68;;;;;;;;;;6308569;28;20056;-66
2022/11/02 04:03:10;;;;;;;20.30;14.02;;;;;;;;;;6306566;28;20060;-65
2022/11/02 04:06:12;;;;;;;18.38;11.85;;;;;;;;;;6306881;28;20102;-65
2022/11/02 04:09:14;;;;;;;22.45;13.13;;;;;;;;;;6304683;28;20052;-65
2022/11/02 04:15:34;;;;;;;17.70;12.43;;;;;;;;;;6306293;28;20281;-65
2022/11/02 04:25:18;;;;;;;18.67;12.73;;;;;;;;;;6318097;28;20056;-66
2022/11/02 04:28:20;;;;;;;;;;;;;;;;;;6316707;28;20056;-66
2022/11/02 04:31:21;;;;;;;19.25;13.32;;;;;;;;;;6316776;28;20207;-66
2022/11/02 04:34:24;;;;;;;21.42;13.95;;;;;;;;;;6313222;28;20097;-66
2022/11/02 04:40:41;;;;;;;18.73;13.05;;;;;;;;;;6309951;28;20036;-66
2022/11/02 04:43:43;;;;;;;20.48;13.52;;;;;;;;;;6313556;28;20249;-66
2022/11/02 04:46:44;;;;;;;20.50;13.27;;;;;;;;;;6311868;28;20052;-67
2022/11/02 04:49:47;;;;;;;22.85;13.98;;;;;;;;;;6311036;28;20121;-65
2022/11/02 04:52:55;;;;;;;24.30;14.05;;;;;;;;;;6305194;28;20056;-66
2022/11/02 04:55:56;;;;;;;19.30;13.15;;;;;;;;;;6305791;28;20060;-65
2022/11/02 04:58:59;;;;;;;19.63;13.13;;;;;;;;;;6305409;28;20086;-65
2022/11/02 05:02:01;;;;;;;23.60;13.18;;;;;;;;;;6304182;28;20044;-65
2022/11/02 05:05:05;;;;;;;21.70;13.88;;;;;;;;;;6308989;28;20198;-66
2022/11/02 05:08:07;;;;;;;18.10;13.38;;;;;;;;;;6303650;28;20143;-66
2022/11/02 05:11:09;;;;;;;22.25;14.23;;;;;;;;;;6305375;28;20051;-65
2022/11/02 05:14:10;;;;;;;19.55;13.63;;;;;;;;;;6302237;28;20060;-65
2022/11/02 05:17:13;;;;;;;23.45;13.95;;;;;;;;;;6308824;28;20048;-66
2022/11/02 05:20:16;;;;;;;25.15;13.73;;;;;;;;;;6300258;28;20053;-65
2022/11/02 05:23:18;;;;;;;22.23;13.43;;;;;;;;;;6303707;28;20075;-65
2022/11/02 05:26:20;;;;;;;20.50;13.48;;;;;;;;;;6304193;28;20048;-65
2022/11/02 05:29:21;;;;;;;25.42;15.25;;;;;;;;;;6301290;28;20075;-65
2022/11/02 05:32:23;;;;;;;23.55;14.20;;;;;;;;;;6304850;28;20056;-65
2022/11/02 05:35:26;;;;;;;21.25;13.80;;;;;;;;;;6307795;28;20093;-66
2022/11/02 05:38:28;;;;;;;21.77;14.38;;;;;;;;;;6303746;28;20332;-66
2022/11/02 05:41:29;;;;;;;27.42;15.45;;;;;;;;;;6304673;28;20056;-65
2022/11/02 05:44:31;;;;;;;24.60;14.85;;;;;;;;;;6302359;28;20368;-66
2022/11/02 05:47:33;;;;;;;21.90;13.55;;;;;;;;;;6302911;28;20048;-66
2022/11/02 05:50:36;;;;;;;25.95;15.45;;;;;;;;;;6306100;28;20052;-65
2022/11/02 05:53:38;;;;;;;25.07;14.87;;;;;;;;;;6303135;28;20045;-65
2022/11/02 05:56:39;;;;;;;28.98;16.40;;;;;;;;;;6305352;28;20075;-66
2022/11/02 05:59:41;;;;;;;21.67;15.00;;;;;;;;;;6303826;28;20044;-66
2022/11/02 06:02:43;;;;;;;25.75;16.02;;;;;;;;;;6303291;28;20053;-65
2022/11/02 06:05:46;;;;;;;26.42;16.08;;;;;;;;;;6297655;28;20056;-68
2022/11/02 06:08:47;;;;;;;25.30;16.92;;;;;;;;;;6303186;28;20118;-65
2022/11/02 06:11:49;;;;;;;28.88;16.60;;;;;;;;;;6304488;28;20106;-64
2022/11/02 06:14:51;;;;;;;26.88;17.40;;;;;;;;;;6299430;28;20061;-68
2022/11/02 06:17:52;;;;;;;28.65;16.60;;;;;;;;;;6298834;28;20652;-65
2022/11/02 06:20:56;;;;;;;28.80;17.35;;;;;;;;;;6311643;28;20048;-64
2022/11/02 06:23:58;;;;;;;;;;;;;;;;;;6310025;28;20060;-67
2022/11/02 06:27:00;;;;;;;29.83;17.13;;;;;;;;;;6311724;28;20162;-66
2022/11/02 06:30:01;;;;;;;31.60;17.25;;;;;;;;;;6305138;28;20213;-67
2022/11/02 06:33:03;;;;;;;29.67;17.60;;;;;;;;;;6304728;28;20083;-67
2022/11/02 06:36:07;;;;;;;30.17;16.70;;;;;;;;;;6311991;28;20052;-67
2022/11/02 06:39:08;;;;;;;31.48;17.23;;;;;;;;;;6312807;28;20052;-67
2022/11/02 06:42:10;;;;;;;29.75;17.48;;;;;;;;;;6312460;28;20048;-67
2022/11/02 06:45:12;;;;;;;32.33;18.65;;;;;;;;;;6310183;28;20098;-67
2022/11/02 06:48:13;;;;;;;33.90;18.02;;;;;;;;;;6316022;28;20392;-68
2022/11/02 06:51:16;;;;;;;34.20;19.52;;;;;;;;;;6304324;28;20059;-67
2022/11/02 06:54:18;;;;;;;37.07;19.67;;;;;;;;;;6294993;28;20060;-67
2022/11/02 06:57:20;;;;;;;34.00;19.58;;;;;;;;;;6294035;28;20174;-67
2022/11/02 07:00:21;;;;;;;37.85;19.85;;;;;;;;;;6303150;28;20056;-69
2022/11/02 07:03:23;;;;;;;30.63;18.23;;;;;;;;;;6310049;28;20048;-69
2022/11/02 07:06:26;;;;;;;36.10;19.38;;;;;;;;;;6303107;28;20048;-68
2022/11/02 07:09:28;;;;;;;33.50;18.70;;;;;;;;;;6303149;28;20106;-68
2022/11/02 07:12:31;;;;;;;31.45;17.77;;;;;;;;;;6306643;28;20060;-67
2022/11/02 07:15:33;;;;;;;36.95;21.13;;;;;;;;;;6301679;28;20052;-67
2022/11/02 07:18:34;;;;;;;46.42;23.20;;;;;;;;;;6300503;28;20059;-70
2022/11/02 07:21:37;;;;;;;48.00;24.10;;;;;;;;;;6305393;28;20045;-67
2022/11/02 07:24:39;;;;;;;47.33;25.77;;;;;;;;;;6307612;28;20342;-69
2022/11/02 07:27:41;;;;;;;52.47;27.80;;;;;;;;;;6308635;28;20478;-67
2022/11/02 07:30:42;;;;;;;53.70;27.83;;;;;;;;;;6312302;28;20113;-69
2022/11/02 07:33:44;;;;;;;56.00;27.73;;;;;;;;;;6307783;28;20089;-67
2022/11/02 07:36:47;;;;;;;57.80;30.40;;;;;;;;;;6308420;28;20052;-67
2022/11/02 07:39:48;;;;;;;59.05;31.02;;;;;;;;;;6308062;28;20106;-67
2022/11/02 07:42:52;;;;;;;62.03;31.23;;;;;;;;;;6307792;28;20137;-66
2022/11/02 07:45:54;;;;;;;;;;;;;;;;;;6310307;28;20045;-66
2022/11/02 07:48:55;;;;;;;58.47;29.02;;;;;;;;;;6307295;28;20239;-67
2022/11/02 07:51:58;;;;;;;54.17;29.23;;;;;;;;;;6307394;28;20058;-67
2022/11/02 07:55:00;;;;;;;53.58;29.02;;;;;;;;;;6306922;28;20271;-67
2022/11/02 07:58:03;;;;;;;53.95;28.83;;;;;;;;;;6307869;28;20049;-69
2022/11/02 08:01:05;;;;;;;54.13;28.88;;;;;;;;;;6307593;28;20101;-69
2022/11/02 08:04:07;;;;;;;47.53;26.02;;;;;;;;;;6305010;28;20052;-68
2022/11/02 08:07:10;;;;;;;42.38;24.13;;;;;;;;;;6307433;28;20102;-68
2022/11/02 08:10:11;;;;;;;43.97;24.57;;;;;;;;;;6305364;28;20056;-69
2022/11/02 08:13:15;;;;;;;45.10;25.75;;;;;;;;;;6305762;28;21236;-67
2022/11/02 08:16:17;;;;;;;44.78;23.60;;;;;;;;;;6305826;28;20051;-67
2022/11/02 08:19:19;;;;;;;74.60;25.17;;;;;;;;;;6313687;28;20098;-67
2022/11/02 08:22:21;;;;;;;69.00;24.90;;;;;;;;;;6310902;28;20039;-67
2022/11/02 08:25:23;;;;;;;56.03;24.63;;;;;;;;;;6309483;28;20099;-67
2022/11/02 08:28:27;;;;;;;57.63;25.27;;;;;;;;;;6305698;28;20291;-67
2022/11/02 08:31:28;;;;;;;46.83;22.63;;;;;;;;;;6309551;28;20135;-67
2022/11/02 08:34:30;;;;;;;35.58;19.63;;;;;;;;;;6307848;28;20047;-68
2022/11/02 08:37:33;;;;;;;32.80;18.40;;;;;;;;;;6308487;28;20094;-69
2022/11/02 08:40:36;;;;;;;24.83;16.27;;;;;;;;;;6306271;28;20312;-67
2022/11/02 08:43:37;;;;;;;25.45;14.60;;;;;;;;;;6309630;28;20081;-69
2022/11/02 08:46:39;;;;;;;21.05;14.38;;;;;;;;;;6311008;28;20090;-67
2022/11/02 08:49:40;;;;;;;20.90;14.32;;;;;;;;;;6309431;28;20043;-67
2022/11/02 08:52:43;;;;;;;29.85;15.32;;;;;;;;;;6307023;28;20060;-67
2022/11/02 08:55:45;;;;;;;23.90;14.73;;;;;;;;;;6305277;28;20064;-68
2022/11/02 08:58:47;;;;;;;22.83;14.90;;;;;;;;;;6305647;28;20068;-68
2022/11/02 09:01:48;;;;;;;22.83;14.43;;;;;;;;;;6308021;28;20152;-68
2022/11/02 09:04:50;;;;;;;22.25;13.75;;;;;;;;;;6305673;28;20265;-68
2022/11/02 09:07:56;;;;;;;21.13;13.45;;;;;;;;;;6310082;28;20368;-68
2022/11/02 09:10:59;;;;;;;22.05;13.88;;;;;;;;;;6306957;28;20060;-68
2022/11/02 09:14:01;;;;;;;24.38;13.98;;;;;;;;;;6304983;28;20236;-68
2022/11/02 09:17:03;;;;;;;20.05;13.38;;;;;;;;;;6305622;28;20386;-68
2022/11/02 09:20:06;;;;;;;19.38;12.73;;;;;;;;;;6303901;28;20052;-68
2022/11/02 09:23:09;;;;;;;19.05;12.60;;;;;;;;;;6306969;28;20094;-68
2022/11/02 09:26:10;;;;;;;18.60;11.70;;;;;;;;;;6306498;28;20194;-68
2022/11/02 09:29:12;;;;;;;15.70;10.98;;;;;;;;;;6305478;28;20048;-68
2022/11/02 09:32:13;;;;;;;16.05;9.70;;;;;;;;;;6306350;28;20339;-68
2022/11/02 09:35:15;;;;;;;20.38;10.13;;;;;;;;;;6302526;28;20045;-68
2022/11/02 09:38:18;;;;;;;14.15;9.90;;;;;;;;;;6302881;28;20049;-68
2022/11/02 09:41:21;;;;;;;;;;;;;;;;;;6308238;28;20213;-68
2022/11/02 09:44:27;;;;;;;14.77;8.95;;;;;;;;;;6302120;28;19916;-67
2022/11/02 09:47:31;;;;;;;35.90;10.45;;;;;;;;;;6309000;28;20116;-67
2022/11/02 09:50:40;;;;;;;110.88;18.13;;;;;;;;;;6303376;28;20057;-67
2022/11/02 09:53:54;;;;;;;122.22;23.92;;;;;;;;;;6305059;28;20051;-68
2022/11/02 09:56:58;;;;;;;70.43;16.40;;;;;;;;;;6304981;28;20340;-68
2022/11/02 10:00:00;;;;;;;68.88;16.27;;;;;;;;;;6305473;28;20040;-68
2022/11/02 10:03:05;;;;;;;209.82;37.15;;;;;;;;;;6305898;28;20151;-68
2022/11/02 10:06:12;;;;;;;112.15;25.13;;;;;;;;;;6303181;28;20102;-67
2022/11/02 10:09:21;;;;;;;82.80;19.17;;;;;;;;;;6307879;28;20062;-67
2022/11/02 10:12:28;;;;;;;298.33;46.78;;;;;;;;;;6303034;28;20055;-68
2022/11/02 10:15:36;;;;;;;260.95;46.28;;;;;;;;;;6303587;28;20059;-68
2022/11/02 10:18:40;;;;;;;74.82;19.83;;;;;;;;;;6308230;28;20116;-67
2022/11/02 10:21:44;;;;;;;25.52;10.35;;;;;;;;;;6304497;28;20102;-67
2022/11/02 10:24:49;;;;;;;14.18;8.68;;;;;;;;;;6304110;28;20102;-68
2022/11/02 10:27:51;;;;;;;14.32;8.75;;;;;;;;;;6307861;28;20053;-67
2022/11/02 10:30:54;;;;;;;16.00;10.00;;;;;;;;;;6306563;28;20102;-68
2022/11/02 10:33:57;;;;;;;15.27;10.15;;;;;;;;;;6304398;28;20103;-67
2022/11/02 10:37:09;;;;;;;17.15;9.43;;;;;;;;;;6303011;28;20048;-67
2022/11/02 10:40:26;;;;;;;18.90;9.50;;;;;;;;;;6305387;28;20070;-67
2022/11/02 10:43:35;;;;;;;14.43;9.02;;;;;;;;;;6306852;28;20052;-67
2022/11/02 10:46:43;;;;;;;15.02;9.00;;;;;;;;;;6306462;28;20122;-67
2022/11/02 10:50:13;;;;;;;15.32;9.90;;;;;;;;;;6300875;28;20102;-67
2022/11/02 10:53:16;;;;;;;15.52;10.65;;;;;;;;;;6301152;28;20044;-68
2022/11/02 10:56:20;;;;;;;17.10;11.13;;;;;;;;;;6302500;28;20131;-66
2022/11/02 10:59:22;;;;;;;16.70;9.68;;;;;;;;;;6307460;28;20210;-67
2022/11/02 11:02:24;;;;;;;16.70;9.50;;;;;;;;;;6309025;28;20192;-67
2022/11/02 11:05:26;;;;;;;20.23;9.73;;;;;;;;;;6310057;28;20068;-67
2022/11/02 11:08:45;;;;;;;17.23;10.10;;;;;;;;;;6310308;28;20043;-66
2022/11/02 11:11:56;;;;;;;18.13;10.57;;;;;;;;;;6308431;28;20116;-67
2022/11/02 11:14:59;;;;;;;17.33;9.65;;;;;;;;;;6308074;28;20053;-67
2022/11/02 11:18:10;;;;;;;15.13;8.75;;;;;;;;;;6306000;28;20312;-68
2022/11/02 11:21:12;;;;;;;14.52;8.02;;;;;;;;;;6313002;28;20328;-68
2022/11/02 11:24:21;;;;;;;22.25;9.10;;;;;;;;;;6307083;28;20060;-68
2022/11/02 11:27:24;;;;;;;20.33;10.43;;;;;;;;;;6307044;28;20325;-67
2022/11/02 11:30:27;;;;;;;20.42;10.77;;;;;;;;;;6307035;28;20060;-68
2022/11/02 11:33:30;;;;;;;20.15;10.75;;;;;;;;;;6308272;28;20052;-69
2022/11/02 11:36:33;;;;;;;16.30;10.38;;;;;;;;;;6306964;28;20111;-68
2022/11/02 11:39:36;;;;;;;22.80;13.00;;;;;;;;;;6307329;28;20340;-68
2022/11/02 11:42:42;;;;;;;19.98;12.60;;;;;;;;;;6306732;28;20048;-67
2022/11/02 11:45:54;;;;;;;19.73;12.63;;;;;;;;;;6308583;28;20090;-68
2022/11/02 11:48:58;;;;;;;23.13;13.82;;;;;;;;;;6307780;28;20058;-69
2022/11/02 11:52:00;;;;;;;30.38;16.13;;;;;;;;;;6307283;28;20083;-68
2022/11/02 11:55:20;;;;;;;27.63;16.08;;;;;;;;;;6304276;28;20120;-68
2022/11/02 11:58:24;;;;;;;27.45;15.23;;;;;;;;;;6305921;28;20280;-67
2022/11/02 12:01:25;;;;;;;26.23;16.27;;;;;;;;;;6303979;28;20068;-68
2022/11/02 12:04:35;;;;;;;29.63;16.80;;;;;;;;;;6304681;28;20200;-68
2022/11/02 12:08:05;;;;;;;30.63;18.85;;;;;;;;;;6305926;28;20052;-68
2022/11/02 12:11:21;;;;;;;31.30;18.48;;;;;;;;;;6307548;28;20051;-68
2022/11/02 12:14:37;;;;;;;29.95;18.48;;;;;;;;;;6303442;28;20052;-68
2022/11/02 12:17:48;;;;;;;31.70;17.92;;;;;;;;;;6302775;28;20090;-68
2022/11/02 12:20:59;;;;;;;30.52;17.70;;;;;;;;;;6313364;28;20098;-68
2022/11/02 12:24:09;;;;;;;30.55;17.08;;;;;;;;;;6309302;28;20109;-69
2022/11/02 12:27:21;;;;;;;28.38;17.52;;;;;;;;;;6316000;28;20394;-68
2022/11/02 12:30:25;;;;;;;31.52;19.20;;;;;;;;;;6312714;28;20056;-68
2022/11/02 12:33:38;;;;;;;31.83;18.58;;;;;;;;;;6314089;28;20052;-69
2022/11/02 12:36:49;;;;;;;27.67;15.55;;;;;;;;;;6313835;28;20227;-69
2022/11/02 12:40:05;;;;;;;28.95;17.50;;;;;;;;;;6315879;28;20052;-68
2022/11/02 12:43:21;;;;;;;28.77;16.73;;;;;;;;;;6310851;28;20098;-69
2022/11/02 12:46:31;;;;;;;25.27;16.67;;;;;;;;;;6312130;28;20060;-71
2022/11/02 12:49:41;;;;;;;26.65;15.55;;;;;;;;;;6313070;28;20063;-69
2022/11/02 12:52:51;;;;;;;24.45;15.23;;;;;;;;;;6315792;28;20099;-69
2022/11/02 12:55:58;;;;;;;24.75;14.50;;;;;;;;;;6306850;28;20214;-68
2022/11/02 12:59:00;;;;;;;21.92;14.93;;;;;;;;;;6306615;28;20141;-68
2022/11/02 13:02:05;;;;;;;31.60;17.65;;;;;;;;;;6304275;28;20040;-67
2022/11/02 13:05:10;;;;;;;27.73;17.02;;;;;;;;;;6301787;28;20063;-68
2022/11/02 13:08:15;;;;;;;27.77;17.05;;;;;;;;;;6305430;28;20048;-67
2022/11/02 13:11:21;;;;;;;28.77;17.77;;;;;;;;;;6304365;28;21287;-67
2022/11/02 13:14:25;;;;;;;37.60;24.42;;;;;;;;;;6302321;28;20328;-67
2022/11/02 13:17:40;;;;;;;65.75;41.13;;;;;;;;;;6307243;28;20044;-68
2022/11/02 13:20:44;;;;;;;40.78;25.02;;;;;;;;;;6301707;28;20201;-68
2022/11/02 13:23:49;;;;;;;33.30;20.95;;;;;;;;;;6302491;28;20109;-69
2022/11/02 13:26:51;;;;;;;32.78;20.00;;;;;;;;;;6307553;28;20401;-68
2022/11/02 13:29:56;;;;;;;30.90;19.10;;;;;;;;;;6306708;28;20263;-68
2022/11/02 13:33:01;;;;;;;31.33;21.10;;;;;;;;;;6305141;28;20336;-68
2022/11/02 13:36:04;;;;;;;37.25;21.92;;;;;;;;;;6307101;28;20046;-68
2022/11/02 13:39:09;;;;;;;37.22;21.73;;;;;;;;;;6305647;28;20064;-68
2022/11/02 13:42:24;;;;;;;39.22;22.75;;;;;;;;;;6303856;28;20044;-69
2022/11/02 13:46:04;;;;;;;39.08;22.33;;;;;;;;;;6304909;28;20056;-68
2022/11/02 13:49:13;;;;;;;34.95;20.92;;;;;;;;;;6286646;28;20094;-68
2022/11/02 13:52:16;;;;;;;39.00;22.45;;;;;;;;;;6306700;28;20048;-69
2022/11/02 13:55:21;;;;;;;36.70;20.90;;;;;;;;;;6304287;28;20128;-69
2022/11/02 13:58:25;;;;;;;32.30;19.65;;;;;;;;;;6303436;28;20108;-68
2022/11/02 14:01:27;;;;;;;35.85;19.73;;;;;;;;;;6304001;28;20056;-69
2022/11/02 14:04:37;;;;;;;35.10;20.17;;;;;;;;;;6303541;28;20040;-68
2022/11/02 14:07:40;;;;;;;34.85;21.20;;;;;;;;;;6302510;28;20098;-68
2022/11/02 14:10:42;;;;;;;35.23;19.87;;;;;;;;;;6302716;28;20110;-69
2022/11/02 14:14:06;;;;;;;39.05;21.67;;;;;;;;;;6302089;28;20056;-69
2022/11/02 14:17:12;;;;;;;33.92;20.85;;;;;;;;;;6303435;28;20114;-68
2022/11/02 14:20:33;;;;;;;32.90;19.90;;;;;;;;;;6302904;28;20100;-68
2022/11/02 14:23:40;;;;;;;30.33;19.10;;;;;;;;;;6304174;28;20057;-68
2022/11/02 14:26:54;;;;;;;31.77;19.17;;;;;;;;;;6306927;28;20044;-68
2022/11/02 14:29:56;;;;;;;31.38;19.90;;;;;;;;;;6303659;28;20076;-68
2022/11/02 14:33:02;;;;;;;31.15;18.08;;;;;;;;;;6307086;28;20052;-68
2022/11/02 14:36:10;;;;;;;31.42;18.67;;;;;;;;;;6309635;28;20143;-68
2022/11/02 14:39:18;;;;;;;35.95;19.40;;;;;;;;;;6309111;28;20071;-68
2022/11/02 14:42:36;;;;;;;29.67;18.40;;;;;;;;;;6310199;28;20044;-68
2022/11/02 14:45:56;;;;;;;31.20;18.02;;;;;;;;;;6311412;28;20048;-68
2022/11/02 14:49:00;;;;;;;33.15;17.33;;;;;;;;;;6315865;28;20048;-68
2022/11/02 14:52:05;;;;;;;26.50;16.30;;;;;;;;;;6314404;28;20052;-67
2022/11/02 14:55:09;;;;;;;26.92;16.02;;;;;;;;;;6316424;28;20086;-68
2022/11/02 14:58:16;;;;;;;27.45;16.25;;;;;;;;;;6317080;28;20040;-68
2022/11/02 15:01:18;;;;;;;27.23;15.68;;;;;;;;;;6312744;28;20055;-69
2022/11/02 15:04:20;;;;;;;25.45;15.90;;;;;;;;;;6313139;28;20055;-68
2022/11/02 15:07:26;;;;;;;28.08;14.32;;;;;;;;;;6313738;28;20052;-68
2022/11/02 15:10:42;;;;;;;25.98;15.27;;;;;;;;;;6312923;28;20044;-68
2022/11/02 15:13:47;;;;;;;23.77;15.02;;;;;;;;;;6313289;28;20044;-68
2022/11/02 15:16:49;;;;;;;28.75;14.50;;;;;;;;;;6312437;28;20114;-68
2022/11/02 15:19:52;;;;;;;22.23;13.80;;;;;;;;;;6312978;28;20238;-68
2022/11/02 15:22:58;;;;;;;22.13;13.40;;;;;;;;;;6316193;28;20113;-67
2022/11/02 15:26:00;;;;;;;18.85;13.00;;;;;;;;;;6311637;28;20052;-67
2022/11/02 15:29:04;;;;;;;21.58;12.77;;;;;;;;;;6310084;28;20045;-68
2022/11/02 15:32:11;;;;;;;20.80;12.35;;;;;;;;;;6312581;28;20044;-68
2022/11/02 15:35:17;;;;;;;25.67;12.80;;;;;;;;;;6311265;28;20056;-68
2022/11/02 15:38:23;;;;;;;24.17;12.48;;;;;;;;;;6307805;28;20227;-67
2022/11/02 15:41:30;;;;;;;21.05;12.77;;;;;;;;;;6313147;28;20044;-68
2022/11/02 15:45:13;;;;;;;20.13;12.57;;;;;;;;;;6313743;28;20040;-68
2022/11/02 15:48:26;;;;;;;38.28;14.77;;;;;;;;;;6264944;28;20102;-68
2022/11/02 15:51:34;;;;;;;26.08;13.90;;;;;;;;;;6300905;28;20571;-67
2022/11/02 15:54:56;;;;;;;23.00;12.80;;;;;;;;;;6304601;28;20056;-66
2022/11/02 15:58:02;;;;;;;20.52;13.15;;;;;;;;;;6298307;28;20098;-67
2022/11/02 16:01:12;;;;;;;20.60;13.30;;;;;;;;;;6307006;28;20064;-68
2022/11/02 16:04:19;;;;;;;19.15;13.13;;;;;;;;;;6307491;28;20040;-68
2022/11/02 16:07:21;;;;;;;21.75;13.10;;;;;;;;;;6309101;28;20062;-68
2022/11/02 16:10:26;;;;;;;26.33;13.88;;;;;;;;;;6305552;28;20105;-68
2022/11/02 16:13:28;;;;;;;18.77;12.95;;;;;;;;;;6304294;28;20076;-68
2022/11/02 16:16:30;;;;;;;21.45;13.55;;;;;;;;;;6304599;28;20074;-68
2022/11/02 16:19:31;;;;;;;21.40;12.85;;;;;;;;;;6308282;28;20048;-68
2022/11/02 16:22:33;;;;;;;19.48;12.68;;;;;;;;;;6305248;28;20079;-67
2022/11/02 16:25:37;;;;;;;18.60;13.45;;;;;;;;;;6303698;28;20097;-68
2022/11/02 16:28:39;;;;;;;19.63;13.00;;;;;;;;;;6306969;28;20090;-67
2022/11/02 16:31:41;;;;;;;18.33;13.77;;;;;;;;;;6309514;28;20052;-67
2022/11/02 16:34:42;;;;;;;18.90;13.85;;;;;;;;;;6306000;28;20044;-66
2022/11/02 16:37:44;;;;;;;19.45;13.05;;;;;;;;;;6305275;28;20052;-67
2022/11/02 16:40:47;;;;;;;22.92;14.05;;;;;;;;;;6305315;28;20337;-67
2022/11/02 16:43:49;;;;;;;18.95;12.80;;;;;;;;;;6304541;28;20106;-67
2022/11/02 16:46:53;;;;;;;18.80;13.05;;;;;;;;;;6307510;28;20071;-69
2022/11/02 16:49:58;;;;;;;25.20;14.02;;;;;;;;;;6306786;28;20060;-68
2022/11/02 16:53:01;;;;;;;21.33;13.15;;;;;;;;;;6307264;28;20041;-67
2022/11/02 16:56:26;;;;;;;24.17;14.65;;;;;;;;;;6306034;28;20133;-68
2022/11/02 16:59:28;;;;;;;20.60;13.80;;;;;;;;;;6307953;28;20064;-68
2022/11/02 17:02:34;;;;;;;21.48;13.90;;;;;;;;;;6304056;28;20349;-67
2022/11/02 17:05:40;;;;;;;22.48;13.63;;;;;;;;;;6305632;28;20076;-66
2022/11/02 17:08:42;;;;;;;20.20;13.23;;;;;;;;;;6302907;28;20278;-66
2022/11/02 17:11:46;;;;;;;20.60;13.83;;;;;;;;;;6301991;28;20275;-67
2022/11/02 17:14:49;;;;;;;24.02;14.63;;;;;;;;;;6305506;28;20241;-69
2022/11/02 17:17:51;;;;;;;20.00;13.55;;;;;;;;;;6306888;28;20052;-70
2022/11/02 17:21:16;;;;;;;20.88;13.73;;;;;;;;;;6306540;28;20040;-69
2022/11/02 17:24:31;;;;;;;21.40;13.27;;;;;;;;;;6304165;28;20052;-69
2022/11/02 17:27:34;;;;;;;19.02;13.45;;;;;;;;;;6308994;28;20056;-70
2022/11/02 17:30:48;;;;;;;23.17;15.13;;;;;;;;;;6302924;28;20052;-69
2022/11/02 17:33:49;;;;;;;;;;;;;;;;;;6306887;28;20121;-71
2022/11/02 17:36:51;;;;;;;21.25;14.38;;;;;;;;;;6304146;28;19924;-70
2022/11/02 17:39:53;;;;;;;20.55;14.10;;;;;;;;;;6302803;28;20165;-66
2022/11/02 17:42:59;;;;;;;24.40;14.68;;;;;;;;;;6305124;28;20101;-67
2022/11/02 17:46:01;;;;;;;22.75;15.20;;;;;;;;;;6308404;28;20137;-67
2022/11/02 17:49:03;;;;;;;21.67;14.88;;;;;;;;;;6303949;28;20055;-67
2022/11/02 17:52:05;;;;;;;23.80;16.20;;;;;;;;;;6303762;28;20052;-67
2022/11/02 17:55:09;;;;;;;22.17;15.20;;;;;;;;;;6300520;28;20098;-66
2022/11/02 17:58:12;;;;;;;;;;;;;;;;;;6302822;28;20052;-67
2022/11/02 18:01:14;;;;;;;21.55;14.80;;;;;;;;;;6303990;28;19925;-67
2022/11/02 18:04:15;;;;;;;22.20;15.82;;;;;;;;;;6303375;28;20370;-67
2022/11/02 18:07:17;;;;;;;22.45;15.00;;;;;;;;;;6304094;28;20406;-70
2022/11/02 18:10:20;;;;;;;24.58;15.95;;;;;;;;;;6300813;28;20044;-65
2022/11/02 18:13:24;;;;;;;24.42;16.08;;;;;;;;;;6298773;28;20056;-66